createdAt,value
2023-03-06T00:00:43.974Z,93010.05
2023-03-06T00:01:23.809Z,93010.30
2023-03-06T00:01:57.337Z,93006.88
2023-03-06T00:02:30.914Z,93008.27
2023-03-06T00:03:05.157Z,93011.17
2023-03-06T00:03:39.007Z,93011.80
2023-03-06T00:04:13.390Z,93006.75
2023-03-06T00:04:47.447Z,93005.60
2023-03-06T00:05:30.237Z,93006.98
2023-03-06T00:06:03.966Z,93007.34
2023-03-06T00:06:37.597Z,93003.40
2023-03-06T00:07:11.188Z,93006.45
2023-03-06T00:07:44.847Z,93009.51
2023-03-06T00:08:18.525Z,93011.17
2023-03-06T00:08:52.267Z,93012.81
2023-03-06T00:09:26.164Z,93012.61
2023-03-06T00:09:59.713Z,93014.12
2023-03-06T00:10:33.839Z,93013.52
2023-03-06T00:11:07.461Z,93012.34
2023-03-06T00:11:41.067Z,93013.69
2023-03-06T00:12:14.559Z,93012.25
2023-03-06T00:12:48.177Z,93010.23
2023-03-06T00:13:22.388Z,92995.60
2023-03-06T00:13:56.208Z,92994.13
2023-03-06T00:14:29.888Z,93008.23
2023-03-06T00:15:05.635Z,93005.11
2023-03-06T00:15:39.639Z,93001.65
2023-03-06T00:16:13.771Z,93006.77
2023-03-06T00:16:47.405Z,93008.90
2023-03-06T00:17:23.885Z,93004.26
2023-03-06T00:17:58.243Z,93007.32
2023-03-06T00:18:31.779Z,93004.38
2023-03-06T00:19:05.467Z,93005.71
2023-03-06T00:19:39.380Z,93007.38
2023-03-06T00:20:13.765Z,93004.66
2023-03-06T00:20:47.229Z,93004.38
2023-03-06T00:21:21.234Z,93005.65
2023-03-06T00:21:55.044Z,93004.10
2023-03-06T00:22:28.648Z,93006.04
2023-03-06T00:23:02.327Z,93006.39
2023-03-06T00:23:36.613Z,93005.05
2023-03-06T00:24:10.216Z,93004.38
2023-03-06T00:24:45.218Z,93002.11
2023-03-06T00:25:27.443Z,92992.98
2023-03-06T00:26:10.967Z,93000.11
2023-03-06T00:26:44.958Z,93000.27
2023-03-06T00:27:18.444Z,93005.48
2023-03-06T00:27:52.591Z,93007.80
2023-03-06T00:28:26.491Z,93004.52
2023-03-06T00:29:02.709Z,93003.70
2023-03-06T00:29:36.780Z,93003.52
2023-03-06T00:30:16.031Z,93003.52
2023-03-06T00:30:49.768Z,93002.98
2023-03-06T00:31:23.396Z,93003.33
2023-03-06T00:31:56.953Z,93001.66
2023-03-06T00:32:30.519Z,93002.56
2023-03-06T00:33:04.334Z,93001.39
2023-03-06T00:33:37.993Z,92999.20
2023-03-06T00:34:11.679Z,92998.55
2023-03-06T00:34:50.308Z,92997.53
2023-03-06T00:35:24.171Z,92993.13
2023-03-06T00:35:57.913Z,92989.55
2023-03-06T00:36:34.222Z,92986.29
2023-03-06T00:37:08.233Z,92991.77
2023-03-06T00:37:42.229Z,92988.27
2023-03-06T00:38:17.980Z,92990.70
2023-03-06T00:38:57.096Z,92991.77
2023-03-06T00:39:31.903Z,92993.80
2023-03-06T00:40:07.264Z,92990.73
2023-03-06T00:40:41.008Z,92995.11
2023-03-06T00:41:14.760Z,92993.05
2023-03-06T00:41:48.330Z,92990.38
2023-03-06T00:42:22.020Z,92988.89
2023-03-06T00:42:58.275Z,92991.46
2023-03-06T00:43:32.082Z,92989.73
2023-03-06T00:44:05.853Z,92987.48
2023-03-06T00:44:39.591Z,92992.58
2023-03-06T00:45:13.838Z,92982.81
2023-03-06T00:45:47.414Z,92987.48
2023-03-06T00:46:21.737Z,92984.91
2023-03-06T00:46:55.514Z,92984.36
2023-03-06T00:47:30.753Z,92985.39
2023-03-06T00:48:05.450Z,92985.38
2023-03-06T00:48:39.307Z,92985.05
2023-03-06T00:49:12.955Z,92986.00
2023-03-06T00:49:47.110Z,92986.35
2023-03-06T00:50:21.249Z,92983.13
2023-03-06T00:50:54.824Z,92983.75
2023-03-06T00:51:28.402Z,92982.77
2023-03-06T00:52:01.909Z,92986.60
2023-03-06T00:52:35.840Z,92978.79
2023-03-06T00:53:11.289Z,92978.55
2023-03-06T00:53:44.982Z,92979.35
2023-03-06T00:54:19.249Z,92978.71
2023-03-06T00:54:52.980Z,92978.31
2023-03-06T00:55:26.845Z,92981.73
2023-03-06T00:56:00.449Z,92962.63
2023-03-06T00:56:37.262Z,92975.21
2023-03-06T00:57:10.964Z,92967.59
2023-03-06T00:57:44.781Z,92968.53
2023-03-06T00:58:19.324Z,92950.58
2023-03-06T00:58:56.214Z,92969.05
2023-03-06T00:59:32.426Z,92968.21
2023-03-06T01:00:07.932Z,92968.53
2023-03-06T01:00:41.672Z,92964.64
2023-03-06T01:01:15.280Z,92959.89
2023-03-06T01:01:48.996Z,92966.52
2023-03-06T01:02:23.035Z,92967.86
2023-03-06T01:02:56.813Z,92966.42
2023-03-06T01:03:32.894Z,92964.48
2023-03-06T01:04:06.672Z,92968.38
2023-03-06T01:04:40.562Z,92961.37
2023-03-06T01:05:14.769Z,92963.91
2023-03-06T01:05:48.283Z,92962.17
2023-03-06T01:06:21.862Z,92939.77
2023-03-06T01:06:55.482Z,92960.77
2023-03-06T01:07:33.662Z,92957.69
2023-03-06T01:08:09.016Z,92957.91
2023-03-06T01:08:42.750Z,92957.52
2023-03-06T01:09:17.100Z,92957.86
2023-03-06T01:09:54.810Z,92952.67
2023-03-06T01:10:29.704Z,92956.98
2023-03-06T01:11:03.419Z,92953.46
2023-03-06T01:11:37.190Z,92958.98
2023-03-06T01:12:10.911Z,92957.04
2023-03-06T01:12:45.659Z,92957.55
2023-03-06T01:13:19.434Z,92958.70
2023-03-06T01:13:53.014Z,92956.77
2023-03-06T01:14:27.300Z,92955.64
2023-03-06T01:15:00.969Z,92934.60
2023-03-06T01:15:35.858Z,92956.06
2023-03-06T01:16:12.561Z,92957.27
2023-03-06T01:16:46.992Z,92956.59
2023-03-06T01:17:20.803Z,92956.55
2023-03-06T01:17:56.890Z,92957.83
2023-03-06T01:18:32.614Z,92952.81
2023-03-06T01:19:06.446Z,92955.41
2023-03-06T01:19:40.180Z,92952.70
2023-03-06T01:20:17.701Z,92950.98
2023-03-06T01:20:53.103Z,92952.94
2023-03-06T01:21:26.789Z,92950.57
2023-03-06T01:22:02.557Z,92952.63
2023-03-06T01:22:36.315Z,92949.19
2023-03-06T01:23:09.850Z,92951.32
2023-03-06T01:23:43.542Z,92955.41
2023-03-06T01:24:17.190Z,92952.42
2023-03-06T01:24:51.013Z,92938.72
2023-03-06T01:25:25.286Z,92948.83
2023-03-06T01:25:59.316Z,92947.53
2023-03-06T01:26:33.743Z,92950.67
2023-03-06T01:27:07.432Z,92948.38
2023-03-06T01:27:41.049Z,92943.95
2023-03-06T01:28:16.998Z,92942.59
2023-03-06T01:28:52.784Z,92941.26
2023-03-06T01:29:26.693Z,92940.14
2023-03-06T01:30:00.370Z,92939.73
2023-03-06T01:30:34.134Z,92941.31
2023-03-06T01:31:09.646Z,92940.70
2023-03-06T01:31:43.372Z,92942.27
2023-03-06T01:32:17.420Z,92937.95
2023-03-06T01:32:51.285Z,92940.05
2023-03-06T01:33:24.776Z,92940.02
2023-03-06T01:33:58.350Z,92935.77
2023-03-06T01:34:31.912Z,92939.73
2023-03-06T01:35:06.705Z,92942.30
2023-03-06T01:35:40.672Z,92941.44
2023-03-06T01:36:14.388Z,92938.23
2023-03-06T01:36:48.023Z,92942.13
2023-03-06T01:37:22.169Z,92940.38
2023-03-06T01:37:55.688Z,92938.88
2023-03-06T01:38:29.294Z,92935.92
2023-03-06T01:39:04.129Z,92934.13
2023-03-06T01:39:37.676Z,92937.95
2023-03-06T01:40:13.321Z,92934.13
2023-03-06T01:40:46.960Z,92935.19
2023-03-06T01:41:21.784Z,92928.88
2023-03-06T01:41:55.328Z,92929.83
2023-03-06T01:42:28.838Z,92929.50
2023-03-06T01:43:34.746Z,92928.49
2023-03-06T01:44:10.354Z,92920.15
2023-03-06T01:44:58.880Z,92922.56
2023-03-06T01:45:35.415Z,92919.25
2023-03-06T01:46:42.691Z,92912.97
2023-03-06T01:47:16.115Z,92909.29
2023-03-06T01:47:49.878Z,92907.76
2023-03-06T01:48:25.247Z,92907.50
2023-03-06T01:49:18.999Z,92905.19
2023-03-06T01:49:53.678Z,92912.43
2023-03-06T01:50:27.299Z,92908.64
2023-03-06T01:51:00.815Z,92905.16
2023-03-06T01:52:03.458Z,92907.36
2023-03-06T01:52:44.836Z,92907.98
2023-03-06T01:53:18.858Z,92910.66
2023-03-06T01:53:56.511Z,92907.02
2023-03-06T01:54:34.786Z,92910.28
2023-03-06T01:55:19.813Z,92908.55
2023-03-06T01:55:53.387Z,92911.01
2023-03-06T01:56:29.159Z,92908.64
2023-03-06T01:57:15.613Z,92909.39
2023-03-06T01:57:55.351Z,92907.67
2023-03-06T01:58:29.179Z,92907.95
2023-03-06T01:59:03.405Z,92908.34
2023-03-06T01:59:38.654Z,92906.47
2023-03-06T02:00:16.363Z,92901.94
2023-03-06T02:00:49.886Z,92895.83
2023-03-06T02:01:23.908Z,92897.03
2023-03-06T02:02:02.018Z,92897.38
2023-03-06T02:02:36.412Z,92895.10
2023-03-06T02:03:16.096Z,92895.35
2023-03-06T02:03:50.636Z,92897.73
2023-03-06T02:04:25.570Z,92895.89
2023-03-06T02:05:00.168Z,92891.43
2023-03-06T02:05:34.262Z,92894.06
2023-03-06T02:06:10.553Z,92893.60
2023-03-06T02:06:44.352Z,92893.36
2023-03-06T02:07:21.043Z,92891.65
2023-03-06T02:07:55.151Z,92890.64
2023-03-06T02:08:30.470Z,92892.09
2023-03-06T02:09:05.259Z,92888.80
2023-03-06T02:09:39.113Z,92895.85
2023-03-06T02:10:14.061Z,92892.84
2023-03-06T02:11:36.714Z,92895.30
2023-03-06T02:12:13.591Z,92889.75
2023-03-06T02:12:49.778Z,92887.54
2023-03-06T02:13:25.007Z,92889.65
2023-03-06T02:13:58.994Z,92889.23
2023-03-06T02:14:32.693Z,92890.98
2023-03-06T02:15:06.783Z,92889.54
2023-03-06T02:15:40.326Z,92876.86
2023-03-06T02:16:15.240Z,92891.88
2023-03-06T02:16:48.943Z,92877.15
2023-03-06T02:17:23.938Z,92888.54
2023-03-06T02:17:57.835Z,92890.92
2023-03-06T02:18:31.562Z,92890.05
2023-03-06T02:19:09.319Z,92890.69
2023-03-06T02:19:45.851Z,92888.63
2023-03-06T02:20:34.153Z,92883.41
2023-03-06T02:21:10.678Z,92881.02
2023-03-06T02:21:44.503Z,92880.45
2023-03-06T02:22:18.145Z,92875.56
2023-03-06T02:23:03.273Z,92875.84
2023-03-06T02:24:03.389Z,92875.63
2023-03-06T02:24:42.913Z,92876.85
2023-03-06T02:25:38.237Z,92880.16
2023-03-06T02:26:12.887Z,92881.31
2023-03-06T02:26:48.184Z,92874.61
2023-03-06T02:27:24.579Z,92879.47
2023-03-06T02:27:59.146Z,92873.71
2023-03-06T02:28:32.866Z,92874.63
2023-03-06T02:29:08.788Z,92870.61
2023-03-06T02:29:42.790Z,92874.98
2023-03-06T02:30:18.124Z,92870.68
2023-03-06T02:30:54.182Z,92873.20
2023-03-06T02:31:31.336Z,92870.35
2023-03-06T02:32:06.018Z,92871.48
2023-03-06T02:32:39.649Z,92874.70
2023-03-06T02:33:19.321Z,92864.15
2023-03-06T02:34:03.525Z,92870.14
2023-03-06T02:34:39.575Z,92868.42
2023-03-06T02:35:20.645Z,92863.30
2023-03-06T02:36:00.780Z,92860.04
2023-03-06T02:36:41.998Z,92863.58
2023-03-06T02:37:15.536Z,92865.20
2023-03-06T02:37:49.763Z,92864.33
2023-03-06T02:38:29.591Z,92862.02
2023-03-06T02:39:04.975Z,92857.16
2023-03-06T02:39:43.198Z,92858.30
2023-03-06T02:40:19.031Z,92853.65
2023-03-06T02:40:53.285Z,92855.66
2023-03-06T02:41:26.932Z,92853.71
2023-03-06T02:42:00.571Z,92855.90
2023-03-06T02:42:35.447Z,92856.70
2023-03-06T02:43:11.304Z,92857.80
2023-03-06T02:43:47.842Z,92845.21
2023-03-06T02:44:22.303Z,92840.63
2023-03-06T02:44:57.545Z,92856.49
2023-03-06T02:45:39.570Z,92855.95
2023-03-06T02:46:13.292Z,92854.63
2023-03-06T02:46:46.953Z,92853.67
2023-03-06T02:47:20.789Z,92851.96
2023-03-06T02:47:54.470Z,92851.95
2023-03-06T02:48:28.123Z,92850.73
2023-03-06T02:50:44.979Z,92849.88
2023-03-06T02:51:18.600Z,92851.13
2023-03-06T02:51:52.201Z,92850.63
2023-03-06T02:52:25.842Z,92849.45
2023-03-06T02:52:59.534Z,92851.25
2023-03-06T02:53:33.023Z,92852.40
2023-03-06T02:54:06.648Z,92850.92
2023-03-06T02:54:40.163Z,92851.16
2023-03-06T02:55:14.228Z,92846.81
2023-03-06T02:55:50.095Z,92851.08
2023-03-06T02:56:23.760Z,92832.92
2023-03-06T02:56:57.315Z,92844.09
2023-03-06T02:57:31.804Z,92842.98
2023-03-06T02:58:06.322Z,92840.00
2023-03-06T02:58:39.866Z,92841.06
2023-03-06T02:59:13.479Z,92839.42
2023-03-06T02:59:47.053Z,92840.63
2023-03-06T03:00:21.056Z,92838.12
2023-03-06T03:00:55.087Z,92837.84
2023-03-06T03:01:28.852Z,92839.95
2023-03-06T03:02:02.590Z,92837.89
2023-03-06T03:02:36.558Z,92836.14
2023-03-06T03:03:10.316Z,92838.17
2023-03-06T03:03:44.311Z,92834.19
2023-03-06T03:04:18.064Z,92832.27
2023-03-06T03:04:52.475Z,92830.65
2023-03-06T03:05:26.636Z,92830.56
2023-03-06T03:06:08.558Z,92830.44
2023-03-06T03:06:48.095Z,92829.30
2023-03-06T03:07:21.721Z,92830.30
2023-03-06T03:07:55.740Z,92831.15
2023-03-06T03:08:29.568Z,92834.00
2023-03-06T03:09:05.638Z,92827.45
2023-03-06T03:09:39.272Z,92830.52
2023-03-06T03:10:13.678Z,92831.93
2023-03-06T03:10:47.946Z,92835.16
2023-03-06T03:11:21.716Z,92836.64
2023-03-06T03:11:55.518Z,92834.63
2023-03-06T03:12:30.541Z,92833.83
2023-03-06T03:13:04.141Z,92830.67
2023-03-06T03:13:37.852Z,92832.05
2023-03-06T03:14:11.464Z,92829.98
2023-03-06T03:14:44.771Z,92828.70
2023-03-06T03:15:19.320Z,92829.53
2023-03-06T03:16:07.101Z,92822.25
2023-03-06T03:16:40.593Z,92828.73
2023-03-06T03:17:14.234Z,92826.27
2023-03-06T03:17:47.820Z,92823.58
2023-03-06T03:18:21.545Z,92830.01
2023-03-06T03:18:55.177Z,92823.44
2023-03-06T03:19:29.009Z,92823.68
2023-03-06T03:20:04.684Z,92824.27
2023-03-06T03:20:42.403Z,92826.27
2023-03-06T03:21:16.197Z,92818.07
2023-03-06T03:21:50.833Z,92818.77
2023-03-06T03:22:27.277Z,92818.10
2023-03-06T03:23:00.963Z,92818.96
2023-03-06T03:23:34.747Z,92813.80
2023-03-06T03:24:09.216Z,92815.83
2023-03-06T03:24:42.819Z,92818.94
2023-03-06T03:25:16.694Z,92818.10
2023-03-06T03:25:50.952Z,92817.19
2023-03-06T03:26:24.530Z,92818.45
2023-03-06T03:27:05.893Z,92817.86
2023-03-06T03:27:39.458Z,92820.08
2023-03-06T03:28:13.028Z,92818.30
2023-03-06T03:28:46.650Z,92820.88
2023-03-06T03:29:22.475Z,92818.48
2023-03-06T03:29:59.949Z,92814.96
2023-03-06T03:30:33.612Z,92818.18
2023-03-06T03:31:10.125Z,92821.92
2023-03-06T03:31:43.690Z,92822.92
2023-03-06T03:32:17.382Z,92815.67
2023-03-06T03:32:51.070Z,92815.17
2023-03-06T03:33:24.678Z,92815.05
2023-03-06T03:33:58.296Z,92814.56
2023-03-06T03:34:32.369Z,92815.63
2023-03-06T03:35:07.934Z,92809.59
2023-03-06T03:35:44.138Z,92803.40
2023-03-06T03:36:17.727Z,92804.73
2023-03-06T03:36:52.383Z,92807.05
2023-03-06T03:37:25.907Z,92809.14
2023-03-06T03:38:01.278Z,92806.15
2023-03-06T03:38:35.455Z,92810.45
2023-03-06T03:39:09.107Z,92808.83
2023-03-06T03:39:42.750Z,92809.14
2023-03-06T03:40:16.451Z,92811.09
2023-03-06T03:40:50.041Z,92807.27
2023-03-06T03:41:24.167Z,92806.58
2023-03-06T03:41:57.981Z,92806.95
2023-03-06T03:42:31.503Z,92807.23
2023-03-06T03:43:07.325Z,92811.20
2023-03-06T03:43:40.923Z,92808.98
2023-03-06T03:44:15.275Z,92808.45
2023-03-06T03:44:49.124Z,92806.36
2023-03-06T03:45:22.783Z,92805.70
2023-03-06T03:45:56.251Z,92803.92
2023-03-06T03:46:30.245Z,92805.46
2023-03-06T03:47:04.151Z,92803.04
2023-03-06T03:47:37.957Z,92797.79
2023-03-06T03:48:12.481Z,92796.73
2023-03-06T03:48:46.211Z,92799.79
2023-03-06T03:49:19.949Z,92797.40
2023-03-06T03:49:53.847Z,92791.87
2023-03-06T03:50:27.834Z,92793.53
2023-03-06T03:51:13.970Z,92795.36
2023-03-06T03:51:51.007Z,92790.73
2023-03-06T03:52:25.007Z,92790.54
2023-03-06T03:52:58.693Z,92791.46
2023-03-06T03:53:32.401Z,92794.00
2023-03-06T03:54:07.122Z,92791.15
2023-03-06T03:54:44.688Z,92789.05
2023-03-06T03:55:18.464Z,92785.29
2023-03-06T03:55:52.131Z,92786.60
2023-03-06T03:56:26.987Z,92783.65
2023-03-06T03:57:13.907Z,92781.54
2023-03-06T03:57:49.688Z,92780.55
2023-03-06T03:58:23.388Z,92776.30
2023-03-06T03:58:57.170Z,92776.41
2023-03-06T03:59:32.580Z,92780.26
2023-03-06T04:00:20.257Z,92778.85
2023-03-06T04:01:00.247Z,92779.45
2023-03-06T04:01:34.302Z,92779.02
2023-03-06T04:02:08.064Z,92777.63
2023-03-06T04:02:46.758Z,92778.35
2023-03-06T04:03:27.742Z,92782.84
2023-03-06T04:04:01.652Z,92781.13
2023-03-06T04:04:35.456Z,92784.20
2023-03-06T04:05:09.743Z,92771.76
2023-03-06T04:05:43.467Z,92785.73
2023-03-06T04:06:18.620Z,92767.22
2023-03-06T04:06:52.357Z,92785.48
2023-03-06T04:07:26.192Z,92782.95
2023-03-06T04:08:02.658Z,92777.66
2023-03-06T04:08:36.866Z,92775.39
2023-03-06T04:09:10.498Z,92773.88
2023-03-06T04:09:44.489Z,92777.34
2023-03-06T04:10:18.665Z,92770.35
2023-03-06T04:10:54.713Z,92774.52
2023-03-06T04:11:28.668Z,92774.74
2023-03-06T04:12:02.244Z,92775.77
2023-03-06T04:12:37.693Z,92776.05
2023-03-06T04:13:11.360Z,92780.77
2023-03-06T04:13:48.258Z,92779.80
2023-03-06T04:14:22.802Z,92778.69
2023-03-06T04:14:56.366Z,92777.89
2023-03-06T04:15:30.030Z,92777.94
2023-03-06T04:16:03.833Z,92768.16
2023-03-06T04:16:38.420Z,92779.01
2023-03-06T04:17:12.834Z,92778.48
2023-03-06T04:17:46.377Z,92777.10
2023-03-06T04:18:23.032Z,92777.05
2023-03-06T04:18:56.587Z,92775.74
2023-03-06T04:19:30.241Z,92773.35
2023-03-06T04:20:05.176Z,92770.61
2023-03-06T04:20:39.467Z,92769.54
2023-03-06T04:21:13.184Z,92768.23
2023-03-06T04:21:47.021Z,92767.83
2023-03-06T04:22:20.648Z,92766.83
2023-03-06T04:22:54.277Z,92768.07
2023-03-06T04:23:28.139Z,92769.48
2023-03-06T04:24:01.708Z,92766.11
2023-03-06T04:24:35.489Z,92770.92
2023-03-06T04:25:09.693Z,92771.97
2023-03-06T04:25:43.254Z,92771.92
2023-03-06T04:26:17.552Z,92768.91
2023-03-06T04:26:51.163Z,92770.54
2023-03-06T04:27:24.849Z,92768.80
2023-03-06T04:27:58.941Z,92771.61
2023-03-06T04:28:32.735Z,92772.92
2023-03-06T04:29:06.557Z,92773.96
2023-03-06T04:29:40.138Z,92772.84
2023-03-06T04:30:13.837Z,92769.50
2023-03-06T04:30:47.531Z,92771.80
2023-03-06T04:31:21.348Z,92762.91
2023-03-06T04:31:55.252Z,92767.27
2023-03-06T04:32:29.015Z,92764.20
2023-03-06T04:33:03.305Z,92749.41
2023-03-06T04:33:36.786Z,92765.31
2023-03-06T04:34:10.537Z,92766.63
2023-03-06T04:34:43.957Z,92761.48
2023-03-06T04:35:17.622Z,92759.58
2023-03-06T04:36:07.415Z,92759.54
2023-03-06T04:36:45.304Z,92762.66
2023-03-06T04:37:25.971Z,92759.70
2023-03-06T04:37:59.961Z,92762.53
2023-03-06T04:38:35.247Z,92764.21
2023-03-06T04:39:10.265Z,92761.59
2023-03-06T04:39:43.960Z,92760.08
2023-03-06T04:40:23.301Z,92741.92
2023-03-06T04:40:57.238Z,92761.42
2023-03-06T04:41:31.059Z,92756.25
2023-03-06T04:42:05.017Z,92753.35
2023-03-06T04:42:38.587Z,92754.42
2023-03-06T04:43:12.157Z,92752.95
2023-03-06T04:43:46.476Z,92750.60
2023-03-06T04:44:20.094Z,92750.77
2023-03-06T04:44:54.224Z,92746.90
2023-03-06T04:45:29.221Z,92744.14
2023-03-06T04:46:03.146Z,92742.16
2023-03-06T04:46:37.270Z,92743.52
2023-03-06T04:47:13.737Z,92741.97
2023-03-06T04:47:47.638Z,92744.31
2023-03-06T04:48:21.442Z,92729.90
2023-03-06T04:48:57.838Z,92741.99
2023-03-06T04:49:31.534Z,92740.73
2023-03-06T04:50:05.648Z,92738.05
2023-03-06T04:50:40.899Z,92735.80
2023-03-06T04:51:16.539Z,92733.85
2023-03-06T04:51:50.393Z,92736.80
2023-03-06T04:52:27.918Z,92734.10
2023-03-06T04:53:05.040Z,92735.41
2023-03-06T04:53:38.632Z,92732.11
2023-03-06T04:54:12.335Z,92733.17
2023-03-06T04:54:46.422Z,92733.14
2023-03-06T04:55:21.412Z,92728.05
2023-03-06T04:55:55.167Z,92727.70
2023-03-06T04:56:28.852Z,92727.55
2023-03-06T04:57:05.486Z,92727.27
2023-03-06T04:57:40.772Z,92727.54
2023-03-06T04:58:15.197Z,92726.08
2023-03-06T04:58:50.868Z,92720.47
2023-03-06T04:59:29.733Z,92715.40
2023-03-06T05:00:10.511Z,92719.40
2023-03-06T05:00:44.333Z,92720.36
2023-03-06T05:01:18.743Z,92717.71
2023-03-06T05:01:52.741Z,92723.52
2023-03-06T05:02:26.479Z,92723.69
2023-03-06T05:03:03.914Z,92724.42
2023-03-06T05:03:38.349Z,92724.16
2023-03-06T05:04:11.911Z,92727.45
2023-03-06T05:04:45.509Z,92725.79
2023-03-06T05:05:20.573Z,92726.88
2023-03-06T05:05:54.252Z,92721.64
2023-03-06T05:06:33.783Z,92724.25
2023-03-06T05:07:07.574Z,92725.09
2023-03-06T05:07:42.201Z,92725.41
2023-03-06T05:08:18.034Z,92724.42
2023-03-06T05:08:51.990Z,92721.95
2023-03-06T05:09:25.557Z,92727.52
2023-03-06T05:10:00.720Z,92719.25
2023-03-06T05:10:34.617Z,92716.85
2023-03-06T05:11:08.359Z,92716.65
2023-03-06T05:11:41.928Z,92714.39
2023-03-06T05:12:15.689Z,92719.23
2023-03-06T05:12:49.521Z,92718.69
2023-03-06T05:13:23.283Z,92718.59
2023-03-06T05:13:57.035Z,92709.55
2023-03-06T05:14:31.747Z,92717.07
2023-03-06T05:15:06.608Z,92713.15
2023-03-06T05:15:41.075Z,92715.10
2023-03-06T05:16:14.814Z,92715.05
2023-03-06T05:16:48.803Z,92713.34
2023-03-06T05:17:22.586Z,92712.05
2023-03-06T05:17:56.929Z,92713.23
2023-03-06T05:18:31.438Z,92712.89
2023-03-06T05:19:05.272Z,92709.98
2023-03-06T05:19:40.333Z,92712.02
2023-03-06T05:20:15.442Z,92708.73
2023-03-06T05:20:49.162Z,92710.63
2023-03-06T05:21:22.950Z,92711.94
2023-03-06T05:21:56.648Z,92710.23
2023-03-06T05:22:30.458Z,92713.39
2023-03-06T05:23:04.068Z,92707.07
2023-03-06T05:23:38.922Z,92710.27
2023-03-06T05:24:12.666Z,92709.25
2023-03-06T05:24:46.378Z,92708.02
2023-03-06T05:25:20.225Z,92706.45
2023-03-06T05:25:56.790Z,92701.98
2023-03-06T05:26:30.676Z,92702.71
2023-03-06T05:27:04.841Z,92706.29
2023-03-06T05:27:39.380Z,92702.66
2023-03-06T05:28:13.026Z,92700.75
2023-03-06T05:28:46.725Z,92699.34
2023-03-06T05:29:20.598Z,92698.97
2023-03-06T05:29:55.581Z,92703.30
2023-03-06T05:30:29.428Z,92702.40
2023-03-06T05:31:03.572Z,92703.16
2023-03-06T05:31:37.464Z,92704.43
2023-03-06T05:32:11.950Z,92703.01
2023-03-06T05:32:45.729Z,92706.26
2023-03-06T05:33:19.441Z,92703.40
2023-03-06T05:33:53.044Z,92705.91
2023-03-06T05:34:29.135Z,92707.50
2023-03-06T05:35:02.812Z,92706.83
2023-03-06T05:35:36.690Z,92705.61
2023-03-06T05:36:10.684Z,92704.31
2023-03-06T05:36:44.755Z,92703.05
2023-03-06T05:37:18.405Z,92706.20
2023-03-06T05:37:52.380Z,92703.91
2023-03-06T05:38:26.393Z,92704.48
2023-03-06T05:39:00.128Z,92700.67
2023-03-06T05:39:33.647Z,92698.20
2023-03-06T05:40:09.730Z,92696.63
2023-03-06T05:40:45.782Z,92699.92
2023-03-06T05:41:19.415Z,92701.04
2023-03-06T05:41:53.469Z,92703.27
2023-03-06T05:42:31.222Z,92699.34
2023-03-06T05:43:05.057Z,92703.41
2023-03-06T05:43:38.848Z,92705.84
2023-03-06T05:44:12.462Z,92706.73
2023-03-06T05:44:46.333Z,92705.88
2023-03-06T05:45:19.875Z,92705.00
2023-03-06T05:46:04.357Z,92703.17
2023-03-06T05:46:38.744Z,92700.29
2023-03-06T05:47:13.161Z,92705.77
2023-03-06T05:47:46.812Z,92701.88
2023-03-06T05:48:20.382Z,92706.17
2023-03-06T05:48:58.254Z,92704.70
2023-03-06T05:49:34.330Z,92709.30
2023-03-06T05:50:10.722Z,92710.63
2023-03-06T05:50:44.436Z,92713.70
2023-03-06T05:51:21.233Z,92708.98
2023-03-06T05:51:55.131Z,92708.55
2023-03-06T05:52:31.318Z,92707.95
2023-03-06T05:53:07.098Z,92700.73
2023-03-06T05:53:41.076Z,92711.83
2023-03-06T05:54:14.914Z,92710.05
2023-03-06T05:54:53.158Z,92713.67
2023-03-06T05:55:26.914Z,92713.52
2023-03-06T05:56:06.305Z,92711.17
2023-03-06T05:56:42.735Z,92711.81
2023-03-06T05:57:16.514Z,92712.08
2023-03-06T05:57:52.925Z,92709.89
2023-03-06T05:58:29.093Z,92713.09
2023-03-06T05:59:04.603Z,92711.80
2023-03-06T05:59:38.420Z,92709.96
2023-03-06T06:00:13.443Z,92697.42
2023-03-06T06:00:47.111Z,92706.07
2023-03-06T06:01:25.678Z,92711.58
2023-03-06T06:02:00.768Z,92712.23
2023-03-06T06:02:34.517Z,92690.66
2023-03-06T06:03:08.575Z,92714.05
2023-03-06T06:03:45.992Z,92712.23
2023-03-06T06:04:19.942Z,92713.05
2023-03-06T06:04:53.554Z,92713.68
2023-03-06T06:05:27.191Z,92713.70
2023-03-06T06:06:05.006Z,92713.34
2023-03-06T06:06:38.803Z,92712.49
2023-03-06T06:07:18.730Z,92715.50
2023-03-06T06:07:55.141Z,92716.64
2023-03-06T06:08:28.815Z,92705.33
2023-03-06T06:09:02.584Z,92717.82
2023-03-06T06:09:36.767Z,92719.60
2023-03-06T06:10:11.984Z,92718.67
2023-03-06T06:10:46.721Z,92716.23
2023-03-06T06:11:21.322Z,92720.06
2023-03-06T06:11:58.106Z,92715.41
2023-03-06T06:12:33.737Z,92716.23
2023-03-06T06:13:07.642Z,92719.95
2023-03-06T06:13:41.483Z,92718.54
2023-03-06T06:14:15.281Z,92715.06
2023-03-06T06:14:52.855Z,92714.27
2023-03-06T06:15:30.250Z,92711.44
2023-03-06T06:16:13.220Z,92709.02
2023-03-06T06:16:48.943Z,92717.39
2023-03-06T06:17:25.509Z,92716.18
2023-03-06T06:18:02.350Z,92716.11
2023-03-06T06:18:37.282Z,92719.94
2023-03-06T06:19:20.526Z,92722.45
2023-03-06T06:19:56.393Z,92721.23
2023-03-06T06:20:35.323Z,92723.79
2023-03-06T06:21:11.330Z,92719.30
2023-03-06T06:21:47.256Z,92719.91
2023-03-06T06:22:21.104Z,92719.73
2023-03-06T06:22:59.581Z,92717.05
2023-03-06T06:23:33.574Z,92717.46
2023-03-06T06:24:07.463Z,92719.04
2023-03-06T06:24:42.709Z,92720.44
2023-03-06T06:25:16.589Z,92719.77
2023-03-06T06:25:53.312Z,92718.66
2023-03-06T06:26:27.025Z,92719.56
2023-03-06T06:27:03.605Z,92719.84
2023-03-06T06:27:40.770Z,92718.13
2023-03-06T06:28:14.364Z,92722.17
2023-03-06T06:28:47.873Z,92721.19
2023-03-06T06:29:22.832Z,92717.77
2023-03-06T06:29:56.593Z,92719.34
2023-03-06T06:30:31.077Z,92719.88
2023-03-06T06:31:12.758Z,92721.15
2023-03-06T06:31:46.658Z,92722.54
2023-03-06T06:32:20.461Z,92719.91
2023-03-06T06:32:54.027Z,92722.09
2023-03-06T06:33:27.809Z,92723.55
2023-03-06T06:34:01.604Z,92721.80
2023-03-06T06:34:35.467Z,92707.48
2023-03-06T06:35:11.778Z,92720.00
2023-03-06T06:35:45.419Z,92718.92
2023-03-06T06:36:21.082Z,92719.98
2023-03-06T06:36:56.601Z,92712.92
2023-03-06T06:37:30.743Z,92721.02
2023-03-06T06:38:04.335Z,92719.66
2023-03-06T06:38:37.981Z,92721.13
2023-03-06T06:39:15.534Z,92723.16
2023-03-06T06:39:49.192Z,92716.48
2023-03-06T06:40:24.571Z,92717.94
2023-03-06T06:41:30.678Z,92716.93
2023-03-06T06:42:09.669Z,92720.29
2023-03-06T06:42:51.679Z,92708.98
2023-03-06T06:43:25.282Z,92716.27
2023-03-06T06:43:59.424Z,92718.35
2023-03-06T06:44:33.057Z,92721.13
2023-03-06T06:45:08.287Z,92723.39
2023-03-06T06:45:44.372Z,92721.32
2023-03-06T06:46:53.335Z,92724.41
2023-03-06T06:47:23.029Z,92727.28
2023-03-06T06:47:57.980Z,92721.95
2023-03-06T06:48:31.667Z,92723.21
2023-03-06T06:49:05.907Z,92721.17
2023-03-06T06:49:39.912Z,92724.55
2023-03-06T06:50:14.581Z,92721.94
2023-03-06T06:50:55.914Z,92721.88
2023-03-06T06:51:33.862Z,92720.83
2023-03-06T06:52:07.839Z,92718.20
2023-03-06T06:52:51.152Z,92717.88
2023-03-06T06:53:28.053Z,92717.20
2023-03-06T06:54:05.813Z,92720.65
2023-03-06T06:54:39.499Z,92720.12
2023-03-06T06:55:13.796Z,92719.18
2023-03-06T06:55:47.563Z,92716.05
2023-03-06T06:56:21.223Z,92717.55
2023-03-06T06:56:55.043Z,92715.91
2023-03-06T06:57:28.774Z,92715.09